createdAt,value
2018-04-11T13:21:39.018Z,15.48
2018-04-11T13:24:05.719Z,19.77
2018-04-11T13:26:32.529Z,19.30
2018-04-11T13:28:59.231Z,19.27
2018-04-11T13:31:25.937Z,19.73
2018-04-11T13:33:52.644Z,18.03
2018-04-11T13:36:19.485Z,21.27
2018-04-11T13:38:46.225Z,20.13
2018-04-11T13:41:12.982Z,19.43
2018-04-11T13:43:39.677Z,19.97
2018-04-11T13:46:06.374Z,19.83
2018-04-11T13:48:33.098Z,19.73
2018-04-11T13:50:59.786Z,18.87
2018-04-11T13:53:26.463Z,18.20
2018-04-11T13:55:53.151Z,17.23
2018-04-11T13:58:19.850Z,16.57
2018-04-11T14:00:46.542Z,16.67
2018-04-11T14:03:13.221Z,16.57
2018-04-11T14:05:39.914Z,15.30
2018-04-11T14:08:06.618Z,15.63
2018-04-11T14:10:33.305Z,15.00
2018-04-11T14:13:00.010Z,14.43
2018-04-11T14:15:26.714Z,13.53
2018-04-11T14:17:53.415Z,12.40
2018-04-11T14:20:20.199Z,12.43
2018-04-11T14:22:46.900Z,12.23
2018-04-11T14:25:13.589Z,12.13
2018-04-11T14:27:40.285Z,11.80
2018-04-11T14:31:38.135Z,10.60
2018-04-11T14:34:04.839Z,10.90
2018-04-11T14:36:31.580Z,11.10
2018-04-11T14:38:58.498Z,11.47
2018-04-11T14:41:25.180Z,10.17
2018-04-11T14:43:51.878Z,10.37
2018-04-11T14:46:18.761Z,10.33
2018-04-11T14:48:45.441Z,9.63
2018-04-11T14:51:12.205Z,10.10
2018-04-11T14:53:38.892Z,9.50
2018-04-11T14:56:05.710Z,9.00
2018-04-11T14:58:32.416Z,9.23
2018-04-11T15:00:59.113Z,10.57
2018-04-11T15:03:25.818Z,11.07
2018-04-11T15:05:53.426Z,12.83
2018-04-11T15:08:20.117Z,12.97
2018-04-11T15:10:46.815Z,12.23
2018-04-11T15:13:13.493Z,12.53
2018-04-11T15:15:40.217Z,13.67
2018-04-11T15:18:06.901Z,12.73
2018-04-11T15:20:33.815Z,12.27
2018-04-11T15:23:00.497Z,12.40
2018-04-11T15:25:27.194Z,13.07
2018-04-11T15:27:53.891Z,13.07
2018-04-11T15:30:20.601Z,13.23
2018-04-11T15:32:48.098Z,12.33
2018-04-11T15:35:14.791Z,12.57
2018-04-11T15:37:41.597Z,11.53
2018-04-11T15:40:08.454Z,12.10
2018-04-11T15:42:35.153Z,12.43
2018-04-11T15:45:01.848Z,10.90
2018-04-11T15:47:28.608Z,10.37
2018-04-11T15:49:55.308Z,11.03
2018-04-11T15:52:21.994Z,10.43
2018-04-11T15:54:48.719Z,10.93
2018-04-11T15:57:15.413Z,10.73
2018-04-11T15:59:42.162Z,10.80
2018-04-11T16:02:08.859Z,11.20
2018-04-11T16:04:35.537Z,10.70
2018-04-11T16:07:02.300Z,10.13
2018-04-11T16:09:28.949Z,9.50
2018-04-11T16:11:55.760Z,10.10
2018-04-11T16:14:22.446Z,9.47
2018-04-11T16:16:49.143Z,9.13
2018-04-11T16:19:15.933Z,8.90
2018-04-11T16:21:42.559Z,8.50
2018-04-11T16:24:09.475Z,8.43
2018-04-11T16:26:36.169Z,8.60
2018-04-11T16:29:03.180Z,8.80
2018-04-11T16:31:29.874Z,8.00
2018-04-11T16:33:57.369Z,8.40
2018-04-11T16:36:24.056Z,8.23
2018-04-11T16:38:50.747Z,7.80
2018-04-11T16:41:17.434Z,7.87
2018-04-11T16:43:44.277Z,8.33
2018-04-11T16:46:10.978Z,8.00
2018-04-11T16:48:37.655Z,8.10
2018-04-11T16:51:04.353Z,8.23
2018-04-11T16:53:31.052Z,8.50
2018-04-11T16:55:57.741Z,7.50
2018-04-11T16:58:24.446Z,7.63
2018-04-11T17:00:51.141Z,7.53
2018-04-11T17:03:17.839Z,7.57
2018-04-11T17:05:44.536Z,8.03
2018-04-11T17:08:11.300Z,7.53
2018-04-11T17:10:38.118Z,7.00
2018-04-11T17:13:04.964Z,7.27
2018-04-11T17:15:31.666Z,8.07
2018-04-11T17:17:58.381Z,7.73
2018-04-11T17:20:31.070Z,7.63
2018-04-11T17:23:03.711Z,7.90
2018-04-11T17:25:36.310Z,8.07
2018-04-11T17:28:24.518Z,8.27
2018-04-11T17:31:12.472Z,7.53
2018-04-11T17:33:39.193Z,7.30
2018-04-11T17:36:05.956Z,7.87
2018-04-11T17:38:32.807Z,7.60
2018-04-11T17:40:59.576Z,8.37
2018-04-11T17:43:26.325Z,7.50
2018-04-11T17:45:53.056Z,8.23
2018-04-11T17:48:19.791Z,8.50
2018-04-11T17:50:46.502Z,8.80
2018-04-11T17:53:13.224Z,8.17
2018-04-11T17:55:39.941Z,8.40
2018-04-11T17:58:06.728Z,8.73
2018-04-11T18:00:33.431Z,8.63
2018-04-11T18:03:00.148Z,9.07
2018-04-11T18:05:26.864Z,8.80
2018-04-11T18:07:53.753Z,8.37
2018-04-11T18:10:20.459Z,8.70
2018-04-11T18:12:47.207Z,8.90
2018-04-11T18:15:13.942Z,8.63
2018-04-11T18:17:41.504Z,8.77
2018-04-11T18:20:08.235Z,9.20
2018-04-11T18:22:34.954Z,8.70
2018-04-11T18:25:01.693Z,9.17
2018-04-11T18:27:28.504Z,8.93
2018-04-11T18:29:55.263Z,8.50
2018-04-11T18:32:22.103Z,8.67
2018-04-11T18:34:48.812Z,8.47
2018-04-11T18:37:16.242Z,8.80
2018-04-11T18:39:43.590Z,8.47
2018-04-11T18:42:10.300Z,8.47
2018-04-11T18:44:37.055Z,8.00
2018-04-11T18:47:03.804Z,8.23
2018-04-11T18:49:30.556Z,7.87
2018-04-11T18:51:57.746Z,7.47
2018-04-11T18:54:24.973Z,7.10
2018-04-11T18:56:52.729Z,6.73
2018-04-11T18:59:19.477Z,6.90
2018-04-11T19:01:46.294Z,7.13
2018-04-11T19:04:13.628Z,7.03
2018-04-11T19:06:40.379Z,6.80
2018-04-11T19:09:07.278Z,6.63
2018-04-11T19:11:34.013Z,7.03
2018-04-11T19:14:00.759Z,7.57
2018-04-11T19:16:29.024Z,6.97
2018-04-11T19:18:55.767Z,6.53
2018-04-11T19:21:22.548Z,6.77
2018-04-11T19:23:50.198Z,7.10
2018-04-11T19:26:17.020Z,7.20
2018-04-11T19:28:44.715Z,6.80
2018-04-11T19:31:11.733Z,6.80
2018-04-11T19:33:39.981Z,6.43
2018-04-11T19:36:06.744Z,6.90
2018-04-11T19:38:34.310Z,6.53
2018-04-11T19:41:01.737Z,6.83
2018-04-11T19:43:28.614Z,6.87
2018-04-11T19:45:55.355Z,7.10
2018-04-11T19:48:22.092Z,6.57
2018-04-11T19:50:49.403Z,6.90
2018-04-11T19:53:16.384Z,6.97
2018-04-11T19:55:43.502Z,7.03
2018-04-11T19:58:10.258Z,6.13
2018-04-11T20:00:37.046Z,6.70
2018-04-11T20:03:03.829Z,6.30
2018-04-11T20:05:31.210Z,5.93
2018-04-11T20:07:57.971Z,6.33
2018-04-11T20:10:25.626Z,6.60
2018-04-11T20:12:52.381Z,6.93
2018-04-11T20:15:19.173Z,20.60
2018-04-11T20:17:45.919Z,11.80
2018-04-11T20:20:13.920Z,10.93
2018-04-11T20:22:40.661Z,9.30
2018-04-11T20:25:08.721Z,8.53
2018-04-11T20:27:35.682Z,8.37
2018-04-11T20:30:02.446Z,9.75
2018-04-11T20:32:30.119Z,8.85
2018-04-11T20:34:57.199Z,8.90
2018-04-11T20:37:24.251Z,9.07
2018-04-11T20:39:51.739Z,8.27
2018-04-11T20:42:18.687Z,8.67
2018-04-11T20:44:45.410Z,8.87
2018-04-11T20:47:12.636Z,8.07
2018-04-11T20:49:39.742Z,8.27
2018-04-11T20:52:06.499Z,8.50
2018-04-11T20:54:33.200Z,7.47
2018-04-11T20:56:59.915Z,7.82
2018-04-11T20:59:26.640Z,7.90
2018-04-11T21:01:53.352Z,7.80
2018-04-11T21:04:20.119Z,7.93
2018-04-11T21:06:46.836Z,8.17
2018-04-11T21:09:13.586Z,7.65
2018-04-11T21:11:40.439Z,8.30
2018-04-11T21:14:07.158Z,8.13
2018-04-11T21:16:33.938Z,7.47
2018-04-11T21:19:00.667Z,7.50
2018-04-11T21:21:27.372Z,7.28
2018-04-11T21:23:54.074Z,6.83
2018-04-11T21:26:20.813Z,7.30
2018-04-11T21:28:47.494Z,7.20
2018-04-11T21:31:14.189Z,6.80
2018-04-11T21:33:40.868Z,7.00
2018-04-11T21:36:07.566Z,7.43
2018-04-11T21:38:34.254Z,7.20
2018-04-11T21:41:00.956Z,7.43
2018-04-11T21:43:27.865Z,7.27
2018-04-11T21:45:54.694Z,7.50
2018-04-11T21:48:21.544Z,7.47
2018-04-11T21:50:48.374Z,7.03
2018-04-11T21:53:15.067Z,7.03
2018-04-11T21:55:41.748Z,6.87
2018-04-11T21:58:08.498Z,7.57
2018-04-11T22:00:35.331Z,7.47
2018-04-11T22:03:02.820Z,7.93
2018-04-11T22:05:29.645Z,7.13
2018-04-11T22:07:56.389Z,7.00
2018-04-11T22:10:23.092Z,7.03
2018-04-11T22:12:49.767Z,7.17
2018-04-11T22:15:16.781Z,7.10
2018-04-11T22:17:43.647Z,7.13
2018-04-11T22:20:10.598Z,8.40
2018-04-11T22:22:37.281Z,7.47
2018-04-11T22:25:04.040Z,7.47
2018-04-11T22:27:30.734Z,7.13
2018-04-11T22:29:57.405Z,7.20
2018-04-11T22:32:24.087Z,7.60
2018-04-11T22:34:50.934Z,6.53
2018-04-11T22:37:17.617Z,6.97
2018-04-11T22:39:44.410Z,7.23
2018-04-11T22:42:11.097Z,7.07
2018-04-11T22:44:37.781Z,7.07
2018-04-11T22:47:04.523Z,6.47
2018-04-11T22:49:31.191Z,6.73
2018-04-11T22:51:58.000Z,7.07
2018-04-11T22:54:24.699Z,7.03
2018-04-11T22:56:51.390Z,6.97
2018-04-11T22:59:18.234Z,7.20
2018-04-11T23:01:45.534Z,6.83
2018-04-11T23:04:12.417Z,6.77
2018-04-11T23:06:39.095Z,6.67
2018-04-11T23:09:05.784Z,6.70
2018-04-11T23:11:32.471Z,6.83
2018-04-11T23:13:59.196Z,6.50
2018-04-11T23:16:26.977Z,6.67
2018-04-11T23:18:53.863Z,6.43
2018-04-11T23:21:20.557Z,6.33
2018-04-11T23:23:47.353Z,6.47
2018-04-11T23:26:14.109Z,6.73
2018-04-11T23:28:41.601Z,6.23
2018-04-11T23:31:08.274Z,6.40
2018-04-11T23:33:34.940Z,6.60
2018-04-11T23:36:01.610Z,6.33
2018-04-11T23:38:28.473Z,5.83
2018-04-11T23:40:55.821Z,6.30
2018-04-11T23:43:22.493Z,6.50
2018-04-11T23:45:49.168Z,6.10
2018-04-11T23:48:15.882Z,6.07
2018-04-11T23:50:42.737Z,6.40
2018-04-11T23:53:09.429Z,6.17
2018-04-11T23:55:36.293Z,6.27
2018-04-11T23:58:02.977Z,5.60
